createdAt,value
2018-11-14T00:00:33.004Z,7.80
2018-11-14T00:03:03.005Z,7.70
2018-11-14T00:05:31.982Z,7.70
2018-11-14T00:08:00.967Z,7.70
2018-11-14T00:10:30.142Z,7.60
2018-11-14T00:12:59.181Z,7.60
2018-11-14T00:15:28.168Z,7.50
2018-11-14T00:17:57.184Z,7.50
2018-11-14T00:20:26.394Z,7.50
2018-11-14T00:22:55.631Z,7.40
2018-11-14T00:25:24.678Z,7.40
2018-11-14T00:27:53.647Z,7.30
2018-11-14T00:30:23.852Z,7.30
2018-11-14T00:32:52.952Z,7.30
2018-11-14T00:35:22.450Z,7.20
2018-11-14T00:37:51.836Z,7.30
2018-11-14T00:40:21.623Z,7.30
2018-11-14T00:42:51.268Z,7.20
2018-11-14T00:45:21.668Z,7.20
2018-11-14T00:47:50.993Z,7.20
2018-11-14T00:50:20.407Z,7.20
2018-11-14T00:52:49.485Z,7.20
2018-11-14T00:55:20.755Z,7.20
2018-11-14T00:57:50.566Z,7.20
2018-11-14T01:00:20.970Z,7.20
2018-11-14T01:02:50.013Z,7.20
2018-11-14T01:05:19.461Z,7.20
2018-11-14T01:07:49.913Z,7.20
2018-11-14T01:10:20.114Z,7.20
2018-11-14T01:12:49.856Z,7.20
2018-11-14T01:15:21.101Z,7.20
2018-11-14T01:17:51.189Z,7.20
2018-11-14T01:20:21.256Z,7.10
2018-11-14T01:22:51.421Z,7.20
2018-11-14T01:25:21.209Z,7.10
2018-11-14T01:27:51.283Z,7.10
2018-11-14T01:30:21.665Z,7.20
2018-11-14T01:32:51.227Z,7.10
2018-11-14T01:35:20.576Z,7.20
2018-11-14T01:37:49.618Z,7.20
2018-11-14T01:40:21.983Z,7.20
2018-11-14T01:42:52.450Z,7.20
2018-11-14T01:45:21.648Z,7.20
2018-11-14T01:47:50.779Z,7.20
2018-11-14T01:50:19.945Z,7.20
2018-11-14T01:52:48.898Z,7.20
2018-11-14T01:55:19.852Z,7.20
2018-11-14T01:57:48.897Z,7.20
2018-11-14T02:00:21.454Z,7.20
2018-11-14T02:02:50.656Z,7.20
2018-11-14T02:05:19.719Z,7.20
2018-11-14T02:07:48.784Z,7.20
2018-11-14T02:10:19.016Z,7.20
2018-11-14T02:12:48.257Z,7.20
2018-11-14T02:15:18.623Z,7.30
2018-11-14T02:17:47.651Z,7.20
2018-11-14T02:20:16.601Z,7.20
2018-11-14T02:22:46.089Z,7.20
2018-11-14T02:25:15.510Z,7.20
2018-11-14T02:27:44.502Z,7.10
2018-11-14T02:30:16.660Z,7.10
2018-11-14T02:32:45.845Z,7.10
2018-11-14T02:35:14.891Z,7.10
2018-11-14T02:37:44.460Z,7.10
2018-11-14T02:40:14.912Z,7.00
2018-11-14T02:42:43.928Z,7.00
2018-11-14T02:45:13.550Z,6.90
2018-11-14T02:47:42.597Z,6.90
2018-11-14T02:50:13.063Z,6.90
2018-11-14T02:52:43.194Z,6.90
2018-11-14T02:55:13.291Z,6.90
2018-11-14T02:57:42.752Z,6.90
2018-11-14T03:00:14.366Z,6.90
2018-11-14T03:02:43.732Z,6.90
2018-11-14T03:05:12.720Z,6.90
2018-11-14T03:07:41.655Z,7.00
2018-11-14T03:10:13.456Z,6.90
2018-11-14T03:12:42.775Z,6.90
2018-11-14T03:15:15.795Z,6.90
2018-11-14T03:17:45.065Z,6.90
2018-11-14T03:20:22.241Z,6.80
2018-11-14T03:22:51.287Z,6.90
2018-11-14T03:25:20.246Z,6.90
2018-11-14T03:27:50.342Z,6.90
2018-11-14T03:30:29.210Z,6.90
2018-11-14T03:32:58.170Z,6.90
2018-11-14T03:35:31.448Z,6.90
2018-11-14T03:38:00.390Z,6.90
2018-11-14T03:40:32.402Z,6.90
2018-11-14T03:43:01.483Z,6.90
2018-11-14T03:45:30.466Z,6.80
2018-11-14T03:47:59.419Z,6.80
2018-11-14T03:50:29.542Z,6.80
2018-11-14T03:52:58.550Z,6.80
2018-11-14T03:55:27.509Z,6.70
2018-11-14T03:57:56.459Z,6.70
2018-11-14T04:00:25.406Z,6.70
2018-11-14T04:02:54.346Z,6.70
2018-11-14T04:05:23.513Z,6.60
2018-11-14T04:07:52.433Z,6.70
2018-11-14T04:10:21.415Z,6.70
2018-11-14T04:12:50.402Z,6.60
2018-11-14T04:15:19.409Z,6.60
2018-11-14T04:17:48.386Z,6.60
2018-11-14T04:20:18.301Z,6.60
2018-11-14T04:22:48.515Z,6.60
2018-11-14T04:25:18.713Z,6.60
2018-11-14T04:27:48.657Z,6.60
2018-11-14T04:30:18.651Z,6.50
2018-11-14T04:32:48.898Z,6.60
2018-11-14T04:35:18.827Z,6.60
2018-11-14T04:37:47.853Z,6.60
2018-11-14T04:40:19.167Z,6.50
2018-11-14T04:42:49.767Z,6.60
2018-11-14T04:45:23.110Z,6.60
2018-11-14T04:47:52.200Z,6.60
2018-11-14T04:50:23.169Z,6.60
2018-11-14T04:52:52.798Z,6.70
2018-11-14T04:55:22.901Z,6.60
2018-11-14T04:57:52.223Z,6.60
2018-11-14T05:00:22.336Z,6.70
2018-11-14T05:02:51.610Z,6.70
2018-11-14T05:05:21.750Z,6.70
2018-11-14T05:07:50.771Z,6.70
2018-11-14T05:10:21.454Z,6.70
2018-11-14T05:12:51.100Z,6.70
2018-11-14T05:15:21.517Z,6.70
2018-11-14T05:17:51.358Z,6.70
2018-11-14T05:20:20.946Z,6.60
2018-11-14T05:22:50.376Z,6.50
2018-11-14T05:25:19.778Z,6.50
2018-11-14T05:27:48.684Z,6.50
2018-11-14T05:30:19.035Z,6.50
2018-11-14T05:32:48.840Z,6.50
2018-11-14T05:35:18.482Z,6.50
2018-11-14T05:37:48.221Z,6.50
2018-11-14T05:40:19.653Z,6.50
2018-11-14T05:42:49.523Z,6.40
2018-11-14T05:45:21.997Z,6.40
2018-11-14T05:47:50.935Z,6.30
2018-11-14T05:50:21.109Z,6.30
2018-11-14T05:52:50.298Z,6.30
2018-11-14T05:55:19.423Z,6.30
2018-11-14T05:57:48.791Z,6.20
2018-11-14T06:00:24.188Z,6.20
2018-11-14T06:02:53.146Z,6.20
2018-11-14T06:05:22.422Z,6.20
2018-11-14T06:07:52.713Z,6.20
2018-11-14T06:10:21.738Z,6.10
2018-11-14T06:12:51.040Z,6.10
2018-11-14T06:15:21.456Z,6.00
2018-11-14T06:17:51.747Z,6.00
2018-11-14T06:20:21.674Z,6.00
2018-11-14T06:22:51.424Z,6.00
2018-11-14T06:25:26.582Z,6.00
2018-11-14T06:27:56.802Z,6.00
2018-11-14T06:30:26.351Z,6.00
2018-11-14T06:32:56.093Z,5.90
2018-11-14T06:35:25.782Z,5.90
2018-11-14T06:37:55.062Z,5.90
2018-11-14T06:40:24.303Z,5.90
2018-11-14T06:42:54.377Z,5.90
2018-11-14T06:45:24.789Z,5.80
2018-11-14T06:47:55.153Z,5.80
2018-11-14T06:50:24.235Z,5.80
2018-11-14T06:52:54.558Z,5.70
2018-11-14T06:55:23.530Z,5.70
2018-11-14T06:57:52.682Z,5.70
2018-11-14T07:00:29.417Z,5.70
2018-11-14T07:02:59.304Z,5.60
2018-11-14T07:05:28.759Z,5.60
2018-11-14T07:07:57.697Z,5.50
2018-11-14T07:10:28.129Z,5.50
2018-11-14T07:13:02.607Z,5.40
2018-11-14T07:15:31.762Z,5.40
2018-11-14T07:18:00.733Z,5.40
2018-11-14T07:20:31.997Z,5.30
2018-11-14T07:23:01.193Z,5.30
2018-11-14T07:25:30.426Z,5.30
2018-11-14T07:27:59.602Z,5.30
2018-11-14T07:30:29.911Z,5.30
2018-11-14T07:33:01.228Z,5.30
2018-11-14T07:35:30.282Z,5.40
2018-11-14T07:38:49.724Z,5.40
2018-11-14T07:41:24.034Z,5.40
2018-11-14T07:43:53.123Z,5.40
2018-11-14T07:46:22.613Z,5.50
2018-11-14T07:48:51.836Z,5.60
2018-11-14T07:51:21.093Z,5.60
2018-11-14T07:53:50.644Z,5.70
2018-11-14T07:56:19.753Z,5.80
2018-11-14T07:58:48.813Z,5.90
2018-11-14T08:01:17.949Z,6.00
2018-11-14T08:03:46.979Z,6.10
2018-11-14T08:06:16.201Z,6.10
2018-11-14T08:08:45.565Z,6.30
2018-11-14T08:11:14.661Z,6.40
2018-11-14T08:13:44.979Z,6.40
2018-11-14T08:16:14.130Z,6.50
2018-11-14T08:18:43.243Z,6.60
2018-11-14T08:21:12.174Z,6.80
2018-11-14T08:23:41.507Z,6.80
2018-11-14T08:26:10.618Z,6.90
2018-11-14T08:28:39.552Z,7.10
2018-11-14T08:31:08.521Z,7.10
2018-11-14T08:33:37.538Z,7.20
2018-11-14T08:36:06.739Z,7.30
2018-11-14T08:38:35.854Z,7.40
2018-11-14T08:41:05.102Z,7.50
2018-11-14T08:43:35.289Z,7.60
2018-11-14T08:46:04.546Z,7.80
2018-11-14T08:48:33.544Z,7.90
2018-11-14T08:51:03.620Z,8.00
2018-11-14T08:53:32.633Z,8.10
2018-11-14T08:56:02.008Z,8.20
2018-11-14T08:58:31.087Z,8.30
2018-11-14T09:01:00.198Z,8.40
2018-11-14T09:03:29.243Z,8.50
2018-11-14T09:05:58.221Z,8.60
2018-11-14T09:08:27.214Z,8.70
2018-11-14T09:10:56.212Z,8.80
2018-11-14T09:13:25.170Z,8.90
2018-11-14T09:15:54.214Z,9.00
2018-11-14T09:18:23.282Z,9.20
2018-11-14T09:20:52.218Z,9.30
2018-11-14T09:23:23.100Z,9.40
2018-11-14T09:25:52.490Z,9.50
2018-11-14T09:28:21.770Z,9.60
2018-11-14T09:30:50.893Z,9.80
2018-11-14T09:33:19.908Z,9.80
2018-11-14T09:35:48.833Z,10.00
2018-11-14T09:38:17.992Z,10.10
2018-11-14T09:40:47.353Z,10.20
2018-11-14T09:43:16.619Z,10.30
2018-11-14T09:45:45.513Z,10.40
2018-11-14T09:48:14.572Z,10.60
2018-11-14T09:50:43.701Z,10.80
2018-11-14T09:53:12.768Z,11.00
2018-11-14T09:55:41.658Z,11.10
2018-11-14T09:58:10.638Z,11.20
2018-11-14T10:00:39.885Z,11.30
2018-11-14T10:03:13.279Z,11.50
2018-11-14T10:05:42.462Z,11.60
2018-11-14T10:08:11.850Z,11.70
2018-11-14T10:10:41.255Z,11.70
2018-11-14T10:13:10.257Z,11.80
2018-11-14T10:15:39.255Z,11.90
2018-11-14T10:18:08.374Z,12.00
2018-11-14T10:20:37.753Z,12.10
2018-11-14T10:23:06.927Z,12.20
2018-11-14T10:25:35.905Z,12.30
2018-11-14T10:28:04.945Z,12.40
2018-11-14T10:30:33.915Z,12.50
2018-11-14T10:33:02.899Z,12.60
2018-11-14T10:35:31.980Z,12.60
2018-11-14T10:38:00.994Z,12.60
2018-11-14T10:40:29.967Z,12.60
2018-11-14T10:42:59.104Z,12.70
2018-11-14T10:45:28.420Z,12.80
2018-11-14T10:47:57.705Z,12.80
2018-11-14T10:50:27.656Z,12.90
2018-11-14T10:52:56.645Z,13.10
2018-11-14T10:55:25.702Z,13.20
2018-11-14T10:57:54.944Z,13.30
2018-11-14T11:00:30.335Z,13.30
2018-11-14T11:03:05.723Z,13.30
2018-11-14T11:05:44.079Z,13.10
2018-11-14T11:08:19.656Z,13.00
2018-11-14T11:10:54.007Z,13.00
2018-11-14T11:13:28.450Z,13.00
2018-11-14T11:16:03.017Z,13.10
2018-11-14T11:18:33.460Z,13.20
2018-11-14T11:21:02.457Z,13.20
2018-11-14T11:23:31.473Z,13.20
2018-11-14T11:26:01.565Z,13.20
2018-11-14T11:28:30.522Z,13.30
2018-11-14T11:30:59.587Z,13.30
2018-11-14T11:33:28.736Z,13.40
2018-11-14T11:35:57.697Z,13.50
2018-11-14T11:38:26.681Z,13.50
2018-11-14T11:40:55.936Z,13.60
2018-11-14T11:43:24.870Z,13.60
2018-11-14T11:45:53.957Z,13.60
2018-11-14T11:48:23.096Z,13.60
2018-11-14T11:50:52.294Z,13.60
2018-11-14T11:53:21.450Z,13.50
2018-11-14T11:55:50.437Z,13.50
2018-11-14T11:58:19.540Z,13.60
2018-11-14T12:00:48.751Z,13.70
2018-11-14T12:03:17.670Z,13.70
2018-11-14T12:05:47.634Z,13.60
2018-11-14T12:08:16.790Z,13.60
2018-11-14T12:10:45.950Z,13.70
2018-11-14T12:13:15.120Z,13.90
2018-11-14T12:15:44.030Z,13.90
2018-11-14T12:18:12.987Z,13.90
2018-11-14T12:20:42.091Z,13.90
2018-11-14T12:23:11.226Z,13.80
2018-11-14T12:25:40.333Z,13.80
2018-11-14T12:28:09.367Z,13.80
2018-11-14T12:30:38.396Z,13.90
2018-11-14T12:33:07.306Z,13.90
2018-11-14T12:35:36.341Z,13.90
2018-11-14T12:38:05.596Z,14.10
2018-11-14T12:40:34.586Z,14.10
2018-11-14T12:43:03.581Z,14.30
2018-11-14T12:45:32.905Z,14.20
2018-11-14T12:48:01.844Z,14.20
2018-11-14T12:50:30.977Z,14.10
2018-11-14T12:53:00.053Z,14.00
2018-11-14T12:55:29.245Z,14.00
2018-11-14T12:57:58.218Z,14.00
2018-11-14T13:00:27.399Z,14.00
2018-11-14T13:02:56.345Z,14.10
2018-11-14T13:05:25.357Z,14.20
2018-11-14T13:07:54.409Z,14.10
2018-11-14T13:10:23.390Z,14.10
2018-11-14T13:12:52.331Z,14.10
2018-11-14T13:15:21.380Z,14.10
2018-11-14T13:17:50.354Z,14.10
2018-11-14T13:20:20.930Z,14.10
2018-11-14T13:22:50.301Z,14.10
2018-11-14T13:25:19.309Z,14.20
2018-11-14T13:27:48.974Z,14.20
2018-11-14T13:30:21.175Z,14.10
2018-11-14T13:32:50.865Z,14.20
2018-11-14T13:35:20.872Z,14.20
2018-11-14T13:37:50.701Z,14.20
2018-11-14T13:40:19.693Z,14.10
2018-11-14T13:42:48.757Z,14.10
2018-11-14T13:45:18.407Z,14.10
2018-11-14T13:47:47.383Z,14.20
2018-11-14T13:50:18.643Z,14.20
2018-11-14T13:52:47.579Z,14.20
2018-11-14T13:55:17.706Z,14.10
2018-11-14T13:57:47.959Z,14.10
2018-11-14T14:00:17.878Z,14.00
2018-11-14T14:02:47.446Z,13.90
2018-11-14T14:05:18.159Z,13.80
2018-11-14T14:07:47.201Z,13.70
2018-11-14T14:10:16.920Z,13.70
2018-11-14T14:12:47.238Z,13.70
2018-11-14T14:15:19.519Z,13.70
2018-11-14T14:17:49.179Z,13.60
2018-11-14T14:20:20.001Z,13.60
2018-11-14T14:22:49.070Z,13.70
2018-11-14T14:25:19.368Z,13.60
2018-11-14T14:27:48.562Z,13.50
2018-11-14T14:30:20.002Z,13.40
2018-11-14T14:32:49.353Z,13.40
2018-11-14T14:35:19.521Z,13.30
2018-11-14T14:37:48.615Z,13.30
2018-11-14T14:40:19.963Z,13.20
2018-11-14T14:42:48.967Z,13.10
2018-11-14T14:45:19.589Z,13.00
2018-11-14T14:47:48.695Z,13.00
2018-11-14T14:50:18.634Z,13.00
2018-11-14T14:52:47.682Z,12.90
2018-11-14T14:55:20.289Z,12.90
2018-11-14T14:57:49.626Z,12.80
2018-11-14T15:00:21.751Z,12.70
2018-11-14T15:02:50.832Z,12.70
2018-11-14T15:05:19.795Z,12.60
2018-11-14T15:07:48.788Z,12.50
2018-11-14T15:10:19.234Z,12.40
2018-11-14T15:12:48.277Z,12.40
2018-11-14T15:15:17.711Z,12.30
2018-11-14T15:17:46.887Z,12.20
2018-11-14T15:20:18.170Z,12.10
2018-11-14T15:22:47.439Z,12.00
2018-11-14T15:25:18.208Z,11.90
2018-11-14T15:27:48.826Z,11.80
2018-11-14T15:30:21.495Z,11.70
2018-11-14T15:32:50.923Z,11.50
2018-11-14T15:35:20.011Z,11.40
2018-11-14T15:37:49.068Z,11.30
2018-11-14T15:40:19.205Z,11.20
2018-11-14T15:42:50.355Z,11.10
2018-11-14T15:45:20.670Z,10.90
2018-11-14T15:47:49.673Z,10.80
2018-11-14T15:50:20.238Z,10.70
2018-11-14T15:52:50.209Z,10.50
2018-11-14T15:55:19.986Z,10.40
2018-11-14T15:57:49.339Z,10.30
2018-11-14T16:00:22.679Z,10.20
2018-11-14T16:02:51.807Z,10.00
2018-11-14T16:05:22.221Z,10.00
2018-11-14T16:07:52.475Z,9.90
2018-11-14T16:10:22.534Z,9.80
2018-11-14T16:12:51.662Z,9.60
2018-11-14T16:15:22.404Z,9.60
2018-11-14T16:17:51.327Z,9.50
2018-11-14T16:20:22.637Z,9.40
2018-11-14T16:22:51.580Z,9.30
2018-11-14T16:25:21.739Z,9.20
2018-11-14T16:27:52.167Z,9.10
2018-11-14T16:30:24.554Z,9.00
2018-11-14T16:32:54.755Z,8.90
2018-11-14T16:35:23.744Z,8.80
2018-11-14T16:37:52.886Z,8.80
2018-11-14T16:40:27.098Z,8.70
2018-11-14T16:42:56.939Z,8.70
2018-11-14T16:45:25.964Z,8.60
2018-11-14T16:47:54.954Z,8.50
2018-11-14T16:50:24.570Z,8.40
2018-11-14T16:52:53.648Z,8.30
2018-11-14T16:55:23.185Z,8.30
2018-11-14T16:57:53.172Z,8.20
2018-11-14T17:00:23.430Z,8.10
2018-11-14T17:02:52.483Z,8.10
2018-11-14T17:05:22.294Z,8.00
2018-11-14T17:07:51.302Z,7.90
2018-11-14T17:10:21.251Z,7.90
2018-11-14T17:12:51.690Z,7.80
2018-11-14T17:15:22.011Z,7.80
2018-11-14T17:17:51.139Z,7.70
2018-11-14T17:20:20.847Z,7.60
2018-11-14T17:22:50.999Z,7.60
2018-11-14T17:25:20.163Z,7.50
2018-11-14T17:27:49.598Z,7.40
2018-11-14T17:30:20.986Z,7.40
2018-11-14T17:32:51.522Z,7.30
2018-11-14T17:35:20.726Z,7.30
2018-11-14T17:37:49.819Z,7.20
2018-11-14T17:40:20.937Z,7.20
2018-11-14T17:42:51.385Z,7.10
2018-11-14T17:45:26.724Z,7.10
2018-11-14T17:47:56.166Z,7.00
2018-11-14T17:50:26.773Z,7.00
2018-11-14T17:52:56.365Z,7.00
2018-11-14T17:55:25.965Z,7.00
2018-11-14T17:57:54.982Z,6.90
2018-11-14T18:00:25.356Z,6.80
2018-11-14T18:02:54.566Z,6.80
2018-11-14T18:05:24.914Z,6.70
2018-11-14T18:07:54.342Z,6.70
2018-11-14T18:10:25.570Z,6.60
2018-11-14T18:12:55.662Z,6.60
2018-11-14T18:15:24.735Z,6.60
2018-11-14T18:17:54.459Z,6.50
2018-11-14T18:20:24.931Z,6.50
2018-11-14T18:22:54.297Z,6.50
2018-11-14T18:25:23.246Z,6.40
2018-11-14T18:27:53.413Z,6.50
2018-11-14T18:30:23.534Z,6.50
2018-11-14T18:32:53.174Z,6.60
2018-11-14T18:35:22.972Z,6.70
2018-11-14T18:37:52.996Z,6.70
2018-11-14T18:40:24.486Z,6.80
2018-11-14T18:42:53.732Z,6.80
2018-11-14T18:45:25.933Z,6.90
2018-11-14T18:47:55.891Z,6.90
2018-11-14T18:50:25.759Z,6.90
2018-11-14T18:52:54.897Z,7.00
2018-11-14T18:55:26.314Z,7.00
2018-11-14T18:57:56.030Z,7.00
2018-11-14T19:00:28.123Z,7.10
2018-11-14T19:02:57.529Z,7.10
2018-11-14T19:05:26.775Z,7.00
2018-11-14T19:07:56.049Z,7.00
2018-11-14T19:10:26.835Z,6.90
2018-11-14T19:12:56.010Z,6.90
2018-11-14T19:15:26.369Z,6.80
2018-11-14T19:17:55.564Z,6.80
2018-11-14T19:20:27.658Z,6.70
2018-11-14T19:22:57.628Z,6.60
2018-11-14T19:25:28.569Z,6.60
2018-11-14T19:27:57.599Z,6.50
2018-11-14T19:30:28.823Z,6.40
2018-11-14T19:32:58.525Z,6.40
2018-11-14T19:35:28.674Z,6.40
2018-11-14T19:37:58.032Z,6.30
2018-11-14T19:40:31.266Z,6.20
2018-11-14T19:43:01.423Z,6.20
2018-11-14T19:45:32.904Z,6.20
2018-11-14T19:48:01.930Z,6.10
2018-11-14T19:50:30.997Z,6.10
2018-11-14T19:52:59.978Z,6.10
2018-11-14T19:55:29.477Z,6.10
2018-11-14T19:57:59.713Z,6.10
2018-11-14T20:00:33.176Z,6.10
2018-11-14T20:03:02.190Z,6.10
2018-11-14T20:05:32.943Z,6.10
2018-11-14T20:08:01.915Z,6.00
2018-11-14T20:10:32.308Z,6.00
2018-11-14T20:13:02.355Z,6.00
2018-11-14T20:15:32.796Z,5.90
2018-11-14T20:18:01.758Z,5.90
2018-11-14T20:20:34.986Z,5.80
2018-11-14T20:23:04.222Z,5.80
2018-11-14T20:25:33.569Z,5.70
2018-11-14T20:28:02.541Z,5.70
2018-11-14T20:30:34.892Z,5.70
2018-11-14T20:33:06.795Z,5.60
2018-11-14T20:35:35.884Z,5.50
2018-11-14T20:38:05.322Z,5.50
2018-11-14T20:40:36.807Z,5.50
2018-11-14T20:43:06.710Z,5.40
2018-11-14T20:45:35.842Z,5.40
2018-11-14T20:48:05.126Z,5.40
2018-11-14T20:50:34.141Z,5.40
2018-11-14T20:53:04.127Z,5.30
2018-11-14T20:55:33.908Z,5.30
2018-11-14T20:58:03.014Z,5.30
2018-11-14T21:00:33.225Z,5.20
2018-11-14T21:03:02.260Z,5.30
2018-11-14T21:05:31.572Z,5.20
2018-11-14T21:08:00.644Z,5.20
2018-11-14T21:10:31.114Z,5.20
2018-11-14T21:13:01.928Z,5.20
2018-11-14T21:15:32.710Z,5.10
2018-11-14T21:18:08.213Z,5.00
2018-11-14T21:20:37.436Z,5.00
2018-11-14T21:23:06.561Z,4.90
2018-11-14T21:25:35.497Z,4.90
2018-11-14T21:28:04.811Z,4.90
2018-11-14T21:30:33.835Z,4.80
2018-11-14T21:33:02.892Z,4.80
2018-11-14T21:35:35.357Z,4.70
2018-11-14T21:38:08.371Z,4.70
2018-11-14T21:40:37.467Z,4.70
2018-11-14T21:43:07.190Z,4.70
2018-11-14T21:45:37.519Z,4.60
2018-11-14T21:48:16.977Z,4.60
2018-11-14T21:50:47.081Z,4.60
2018-11-14T21:53:16.332Z,4.60
2018-11-14T21:55:45.200Z,4.60
2018-11-14T21:58:14.155Z,4.60
2018-11-14T22:00:43.192Z,4.60
2018-11-14T22:03:12.229Z,4.60
2018-11-14T22:05:41.301Z,4.60
2018-11-14T22:08:10.552Z,4.60
2018-11-14T22:10:39.503Z,4.60
2018-11-14T22:13:08.438Z,4.50
2018-11-14T22:15:37.503Z,4.50
2018-11-14T22:18:06.655Z,4.40
2018-11-14T22:20:35.841Z,4.40
2018-11-14T22:23:05.946Z,4.30
2018-11-14T22:25:35.015Z,4.20
2018-11-14T22:28:04.244Z,4.20
2018-11-14T22:30:34.334Z,4.10
2018-11-14T22:33:03.402Z,4.10
2018-11-14T22:35:32.941Z,4.10
2018-11-14T22:38:02.014Z,4.00
2018-11-14T22:40:32.422Z,4.00
2018-11-14T22:43:01.436Z,3.90
2018-11-14T22:45:32.689Z,3.90
2018-11-14T22:48:01.866Z,3.80
2018-11-14T22:50:32.188Z,3.80
2018-11-14T22:53:01.194Z,3.70
2018-11-14T22:55:30.370Z,3.70
2018-11-14T22:57:59.754Z,3.70
2018-11-14T23:00:30.032Z,3.60
2018-11-14T23:03:00.421Z,3.50
2018-11-14T23:05:29.877Z,3.50
2018-11-14T23:07:59.515Z,3.50
2018-11-14T23:10:28.835Z,3.50
2018-11-14T23:12:57.869Z,3.50
2018-11-14T23:15:27.033Z,3.40
2018-11-14T23:17:57.246Z,3.40
2018-11-14T23:20:26.566Z,3.40
2018-11-14T23:22:55.920Z,3.40
2018-11-14T23:25:25.170Z,3.40
2018-11-14T23:27:55.323Z,3.40
2018-11-14T23:30:25.859Z,3.40
2018-11-14T23:32:55.570Z,3.50
2018-11-14T23:35:30.042Z,3.50
2018-11-14T23:38:06.120Z,3.60
2018-11-14T23:40:35.158Z,3.60
2018-11-14T23:43:04.451Z,3.60
2018-11-14T23:45:33.476Z,3.60
2018-11-14T23:48:02.483Z,3.70
2018-11-14T23:50:32.664Z,3.70
2018-11-14T23:53:02.574Z,3.60
2018-11-14T23:55:32.539Z,3.60
2018-11-14T23:58:01.562Z,3.50
